Terminal Aerodrome Forecast
Issued by NWS

Home | Current Version | Previous Version | Text Only | Print | Product List | Glossary On
Versions: 1 2 3 4 5 6 7 8 9 10 11 12 13 14
000
FTUS42 KTBW 241100
TAFLAL
TAF
KLAL 241136Z 2412/2512 00000KT P6SM FEW045 SCT060
     FM241600 21004KT P6SM VCTS FEW045CB SCT250
     FM241900 24006KT P6SM VCTS SCT050CB SCT250
     FM250000 25005KT P6SM FEW035 SCT100 BKN250
     FM250400 VRB03KT P6SM FEW010 SCT250=

USA.gov is the U.S. government's official web portal to all federal, state and local government web resources and services.